createdAt,value
2023-01-29T00:00:17.984Z,70.30
2023-01-29T00:02:45.945Z,82.57
2023-01-29T00:05:26.978Z,77.13
2023-01-29T00:07:57.537Z,73.67
2023-01-29T00:10:27.101Z,78.57
2023-01-29T00:12:55.420Z,81.47
2023-01-29T00:15:23.480Z,83.30
2023-01-29T00:17:51.206Z,70.77
2023-01-29T00:20:19.545Z,73.03
2023-01-29T00:22:47.520Z,81.73
2023-01-29T00:25:15.136Z,77.27
2023-01-29T00:27:44.063Z,121.50
2023-01-29T00:30:13.807Z,337.27
2023-01-29T00:32:42.443Z,381.90
2023-01-29T00:35:12.166Z,243.30
2023-01-29T00:37:40.073Z,138.03
2023-01-29T00:40:10.628Z,94.63
2023-01-29T00:42:57.285Z,134.93
2023-01-29T00:45:25.067Z,107.20
2023-01-29T00:47:52.923Z,89.53
2023-01-29T00:50:21.082Z,98.53
2023-01-29T00:52:49.909Z,84.43
2023-01-29T00:55:17.950Z,82.67
2023-01-29T00:57:47.073Z,80.37
2023-01-29T01:00:19.681Z,91.47
2023-01-29T01:03:05.929Z,77.43
2023-01-29T01:05:34.475Z,79.27
2023-01-29T01:08:02.401Z,76.97
2023-01-29T01:10:34.055Z,79.43
2023-01-29T01:13:07.903Z,78.60
2023-01-29T01:15:40.980Z,74.50
2023-01-29T01:18:08.785Z,83.57
2023-01-29T01:20:37.876Z,72.13
2023-01-29T01:23:05.850Z,90.17
2023-01-29T01:25:34.080Z,73.03
2023-01-29T01:28:01.983Z,69.67
2023-01-29T01:30:30.140Z,67.53
2023-01-29T01:32:58.233Z,68.63
2023-01-29T01:35:26.058Z,77.40
2023-01-29T01:37:54.041Z,70.63
2023-01-29T01:40:25.979Z,81.20
2023-01-29T01:42:59.794Z,62.90
2023-01-29T01:45:37.066Z,71.57
2023-01-29T01:48:19.636Z,63.23
2023-01-29T01:51:06.664Z,71.33
2023-01-29T01:54:17.269Z,67.87
2023-01-29T01:57:09.569Z,66.80
2023-01-29T01:59:43.701Z,69.17
2023-01-29T02:02:30.507Z,73.23
2023-01-29T02:05:18.253Z,73.80
2023-01-29T02:08:10.194Z,79.53
2023-01-29T02:10:49.132Z,82.00
2023-01-29T02:13:18.807Z,74.13
2023-01-29T02:15:48.781Z,71.40
2023-01-29T02:18:21.732Z,69.10
2023-01-29T02:21:40.199Z,62.37
2023-01-29T02:24:50.363Z,62.90
2023-01-29T02:28:05.182Z,68.33
2023-01-29T02:30:47.324Z,69.47
2023-01-29T02:33:43.285Z,70.07
2023-01-29T02:36:29.123Z,67.37
2023-01-29T02:39:38.607Z,64.10
2023-01-29T02:43:14.387Z,72.57
2023-01-29T02:46:28.158Z,68.53
2023-01-29T02:49:19.242Z,75.63
2023-01-29T02:52:23.490Z,73.20
2023-01-29T02:55:35.649Z,67.57
2023-01-29T02:58:59.402Z,73.20
2023-01-29T03:01:54.716Z,78.40
2023-01-29T03:04:48.455Z,69.73
2023-01-29T03:07:42.567Z,62.43
2023-01-29T03:10:29.009Z,69.93
2023-01-29T03:13:42.032Z,76.27
2023-01-29T03:16:42.133Z,64.43
2023-01-29T03:19:36.727Z,64.83
2023-01-29T03:22:16.753Z,69.37
2023-01-29T03:25:19.439Z,72.30
2023-01-29T03:28:19.024Z,67.80
2023-01-29T03:31:26.053Z,62.47
2023-01-29T03:34:34.759Z,67.37
2023-01-29T03:37:46.592Z,60.73
2023-01-29T03:40:16.548Z,72.37
2023-01-29T03:43:20.929Z,65.17
2023-01-29T03:46:38.648Z,71.23
2023-01-29T03:49:59.554Z,74.50
2023-01-29T03:53:18.794Z,74.00
2023-01-29T03:56:44.529Z,75.43
2023-01-29T03:59:54.254Z,71.23
2023-01-29T04:03:30.540Z,78.20
2023-01-29T04:06:20.802Z,70.13
2023-01-29T04:09:30.671Z,66.73
2023-01-29T04:12:12.079Z,67.67
2023-01-29T04:14:43.573Z,67.70
2023-01-29T04:17:43.906Z,75.73
2023-01-29T04:20:20.691Z,65.93
2023-01-29T04:22:53.514Z,68.77
2023-01-29T04:25:36.241Z,63.07
2023-01-29T04:28:34.818Z,62.63
2023-01-29T04:31:12.816Z,59.03
2023-01-29T04:34:28.101Z,64.53
2023-01-29T04:37:23.011Z,60.83
2023-01-29T04:40:39.165Z,64.40
2023-01-29T04:43:28.131Z,55.13
2023-01-29T04:46:27.309Z,61.40
2023-01-29T04:50:13.738Z,67.00
2023-01-29T04:53:17.749Z,61.67
2023-01-29T04:56:09.365Z,65.87
2023-01-29T04:59:06.731Z,61.47
2023-01-29T05:01:38.191Z,66.87
2023-01-29T05:04:20.117Z,69.97
2023-01-29T05:06:49.980Z,56.10
2023-01-29T05:09:20.093Z,60.97
2023-01-29T05:11:50.426Z,64.43
2023-01-29T05:14:23.832Z,57.10
2023-01-29T05:16:58.950Z,61.57
2023-01-29T05:19:27.143Z,54.93
2023-01-29T05:21:55.809Z,56.10
2023-01-29T05:24:27.253Z,60.90
2023-01-29T05:27:14.262Z,62.90
2023-01-29T05:29:47.885Z,58.60
2023-01-29T05:32:17.140Z,52.67
2023-01-29T05:34:44.864Z,51.30
2023-01-29T05:37:12.678Z,52.83
2023-01-29T05:39:40.382Z,59.00
2023-01-29T05:42:08.065Z,56.77
2023-01-29T05:44:35.893Z,52.20
2023-01-29T05:47:03.753Z,59.27
2023-01-29T05:49:31.464Z,59.10
2023-01-29T05:51:59.275Z,54.20
2023-01-29T05:54:27.117Z,54.37
2023-01-29T05:56:54.860Z,50.90
2023-01-29T05:59:22.868Z,57.50
2023-01-29T06:01:50.770Z,48.37
2023-01-29T06:04:18.519Z,53.67
2023-01-29T06:06:46.258Z,52.07
2023-01-29T06:09:14.158Z,48.37
2023-01-29T06:11:41.851Z,49.40
2023-01-29T06:14:09.891Z,57.40
2023-01-29T06:16:37.671Z,70.80
2023-01-29T06:19:05.515Z,48.77
2023-01-29T06:21:33.257Z,55.70
2023-01-29T06:24:01.294Z,55.57
2023-01-29T06:26:28.949Z,62.07
2023-01-29T06:28:56.810Z,53.30
2023-01-29T06:31:37.875Z,50.37
2023-01-29T06:34:08.538Z,55.27
2023-01-29T06:36:37.024Z,55.50
2023-01-29T06:39:05.500Z,52.83
2023-01-29T06:41:33.560Z,52.80
2023-01-29T06:44:01.421Z,54.77
2023-01-29T06:46:29.431Z,56.37
2023-01-29T06:49:03.088Z,62.53
2023-01-29T06:51:30.944Z,52.03
2023-01-29T06:53:59.809Z,50.37
2023-01-29T06:56:27.839Z,56.13
2023-01-29T06:58:55.721Z,52.33
2023-01-29T07:01:35.246Z,53.73
2023-01-29T07:04:04.672Z,56.97
2023-01-29T07:06:34.936Z,54.13
2023-01-29T07:09:05.984Z,49.50
2023-01-29T07:11:37.938Z,51.80
2023-01-29T07:14:07.149Z,51.93
2023-01-29T07:16:35.309Z,58.30
2023-01-29T07:19:03.389Z,50.70
2023-01-29T07:21:31.533Z,46.73
2023-01-29T07:23:59.319Z,47.97
2023-01-29T07:26:27.488Z,58.17
2023-01-29T07:28:56.051Z,56.10
2023-01-29T07:31:24.086Z,53.20
2023-01-29T07:33:54.281Z,58.70
2023-01-29T07:36:22.361Z,55.27
2023-01-29T07:38:51.958Z,60.30
2023-01-29T07:41:20.196Z,53.33
2023-01-29T07:43:49.039Z,50.67
2023-01-29T07:46:17.041Z,58.23
2023-01-29T07:48:45.082Z,51.73
2023-01-29T07:51:12.813Z,56.23
2023-01-29T07:53:40.798Z,52.30
2023-01-29T07:56:08.674Z,55.07
2023-01-29T07:58:36.887Z,50.93
2023-01-29T08:01:08.738Z,56.03
2023-01-29T08:03:37.523Z,56.93
2023-01-29T08:06:06.441Z,60.20
2023-01-29T08:08:37.790Z,53.63
2023-01-29T08:11:06.207Z,54.63
2023-01-29T08:13:34.467Z,53.73
2023-01-29T08:16:04.805Z,51.90
2023-01-29T08:18:32.980Z,48.60
2023-01-29T08:21:02.523Z,54.40
2023-01-29T08:23:30.758Z,54.63
2023-01-29T08:25:58.928Z,51.27
2023-01-29T08:28:26.784Z,51.70
2023-01-29T08:30:55.254Z,57.67
2023-01-29T08:33:37.882Z,49.17
2023-01-29T08:36:09.539Z,48.23
2023-01-29T08:38:37.603Z,57.43
2023-01-29T08:41:07.119Z,58.23
2023-01-29T08:43:40.045Z,50.73
2023-01-29T08:46:09.059Z,52.63
2023-01-29T08:48:37.102Z,54.70
2023-01-29T08:51:06.029Z,49.53
2023-01-29T08:53:34.130Z,50.53
2023-01-29T08:56:02.354Z,52.17
2023-01-29T08:58:30.132Z,49.20
2023-01-29T09:01:06.121Z,53.23
2023-01-29T09:03:47.135Z,51.53
2023-01-29T09:06:15.768Z,52.60
2023-01-29T09:08:43.580Z,52.50
2023-01-29T09:11:12.179Z,59.70
2023-01-29T09:13:40.016Z,48.00
2023-01-29T09:16:09.563Z,57.90
2023-01-29T09:18:37.956Z,48.33
2023-01-29T09:21:06.389Z,51.57
2023-01-29T09:23:34.491Z,52.67
2023-01-29T09:26:02.329Z,50.23
2023-01-29T09:28:30.433Z,52.20
2023-01-29T09:31:03.247Z,50.80
2023-01-29T09:33:32.673Z,47.37
2023-01-29T09:36:03.514Z,46.80
2023-01-29T09:38:31.376Z,58.70
2023-01-29T09:42:30.324Z,47.70
2023-01-29T09:45:24.733Z,51.10
2023-01-29T09:47:59.244Z,51.17
2023-01-29T09:50:46.762Z,50.33
2023-01-29T09:53:47.632Z,47.30
2023-01-29T09:56:28.851Z,59.23
2023-01-29T09:59:01.706Z,43.33
2023-01-29T10:01:50.734Z,51.73
2023-01-29T10:05:06.766Z,48.63
2023-01-29T10:08:20.794Z,52.20
2023-01-29T10:12:16.267Z,47.73
2023-01-29T10:15:08.799Z,49.27
2023-01-29T10:18:43.214Z,48.60
2023-01-29T10:22:22.845Z,47.47
2023-01-29T10:25:22.824Z,55.47
2023-01-29T10:28:01.292Z,49.20
2023-01-29T10:30:45.739Z,55.93
2023-01-29T10:33:49.571Z,47.53
2023-01-29T10:36:54.766Z,50.07
2023-01-29T10:39:31.151Z,48.97
2023-01-29T10:42:46.503Z,48.97
2023-01-29T10:46:16.383Z,44.50
2023-01-29T10:49:31.932Z,47.43
2023-01-29T10:52:54.753Z,50.60
2023-01-29T10:55:52.049Z,45.13
2023-01-29T10:59:38.356Z,51.87
2023-01-29T11:02:22.728Z,46.63
2023-01-29T11:04:50.979Z,54.90
2023-01-29T11:07:24.605Z,46.30
2023-01-29T11:10:15.299Z,43.80
2023-01-29T11:12:45.735Z,46.43
2023-01-29T11:15:36.465Z,47.57
2023-01-29T11:18:15.925Z,50.30
2023-01-29T11:20:59.636Z,50.00
2023-01-29T11:23:33.973Z,53.20
2023-01-29T11:26:18.320Z,48.23
2023-01-29T11:28:51.346Z,45.67
2023-01-29T11:31:37.581Z,50.30
2023-01-29T11:34:29.567Z,50.00
2023-01-29T11:37:17.464Z,50.30
2023-01-29T11:39:48.482Z,51.50
2023-01-29T11:42:23.677Z,51.17
2023-01-29T11:44:51.743Z,46.90
2023-01-29T11:47:29.758Z,47.60
2023-01-29T11:50:04.653Z,45.80
2023-01-29T11:52:43.930Z,43.50
2023-01-29T11:55:33.078Z,47.33
2023-01-29T11:58:26.775Z,47.07
2023-01-29T12:00:58.313Z,52.53
2023-01-29T12:03:46.995Z,47.60
2023-01-29T12:06:36.629Z,43.23
2023-01-29T12:09:20.031Z,43.20
2023-01-29T12:11:48.720Z,47.63
2023-01-29T12:14:34.419Z,43.63
2023-01-29T12:17:31.157Z,47.07
2023-01-29T12:20:13.942Z,51.53
2023-01-29T12:23:03.677Z,45.17
2023-01-29T12:26:08.096Z,48.80
2023-01-29T12:30:22.159Z,51.07
2023-01-29T12:33:28.117Z,46.30
2023-01-29T12:36:55.871Z,46.30
2023-01-29T12:39:24.031Z,51.40
2023-01-29T12:42:15.806Z,49.47
2023-01-29T12:45:08.204Z,45.67
2023-01-29T12:48:02.056Z,50.17
2023-01-29T12:50:41.272Z,51.97
2023-01-29T12:53:51.092Z,46.60
2023-01-29T12:56:38.081Z,48.00
2023-01-29T12:59:36.837Z,45.03
2023-01-29T13:02:44.470Z,48.73
2023-01-29T13:05:48.376Z,41.87
2023-01-29T13:08:32.803Z,46.87
2023-01-29T13:11:12.023Z,51.40
2023-01-29T13:13:54.872Z,42.50
2023-01-29T13:16:49.966Z,44.00
2023-01-29T13:19:48.333Z,46.17
2023-01-29T13:22:41.838Z,39.67
2023-01-29T13:25:20.699Z,52.80
2023-01-29T13:27:50.680Z,43.87
2023-01-29T13:30:34.934Z,42.63
2023-01-29T13:33:10.266Z,40.03
2023-01-29T13:35:46.410Z,48.10
2023-01-29T13:38:35.536Z,43.57
2023-01-29T13:41:08.904Z,47.30
2023-01-29T13:43:48.845Z,42.83
2023-01-29T13:46:21.667Z,39.90
2023-01-29T13:48:55.236Z,42.87
2023-01-29T13:51:36.724Z,44.23
2023-01-29T13:54:24.767Z,44.73
2023-01-29T13:56:55.956Z,44.50
2023-01-29T13:59:55.491Z,46.33
2023-01-29T14:02:29.852Z,41.70
2023-01-29T14:05:30.228Z,47.90
2023-01-29T14:08:13.892Z,43.27
2023-01-29T14:10:44.627Z,48.90
2023-01-29T14:13:36.080Z,51.30
2023-01-29T14:16:04.588Z,44.37
2023-01-29T14:18:47.463Z,46.30
2023-01-29T14:21:28.570Z,53.50
2023-01-29T14:24:22.487Z,42.27
2023-01-29T14:26:56.938Z,49.17
2023-01-29T14:29:41.845Z,49.60
2023-01-29T14:32:25.193Z,46.20
2023-01-29T14:35:18.684Z,45.67
2023-01-29T14:38:00.893Z,47.33
2023-01-29T14:40:33.216Z,41.33
2023-01-29T14:43:20.994Z,51.13
2023-01-29T14:45:51.781Z,46.50
2023-01-29T14:48:52.040Z,45.07
2023-01-29T14:51:25.684Z,49.60
2023-01-29T14:54:33.734Z,43.93
2023-01-29T14:57:12.264Z,51.50
2023-01-29T15:00:01.462Z,41.90
2023-01-29T15:02:45.662Z,43.33
2023-01-29T15:05:29.322Z,51.77
2023-01-29T15:08:30.178Z,41.37
2023-01-29T15:11:35.777Z,40.47
2023-01-29T15:14:49.577Z,41.73
2023-01-29T15:17:33.460Z,47.60
2023-01-29T15:20:01.878Z,47.07
2023-01-29T15:22:33.065Z,54.43
2023-01-29T15:25:16.974Z,55.30
2023-01-29T15:27:46.822Z,42.67
2023-01-29T15:30:34.269Z,44.57
2023-01-29T15:33:05.221Z,47.17
2023-01-29T15:35:42.958Z,47.60
2023-01-29T15:38:22.792Z,45.33
2023-01-29T15:41:01.398Z,43.23
2023-01-29T15:43:38.110Z,46.87
2023-01-29T15:46:36.478Z,46.60
2023-01-29T15:49:25.235Z,42.87
2023-01-29T15:52:01.161Z,43.67
2023-01-29T15:54:35.388Z,38.10
2023-01-29T15:57:06.751Z,45.27
2023-01-29T15:59:45.178Z,44.20
2023-01-29T16:02:38.915Z,43.40
2023-01-29T16:05:33.277Z,39.57
2023-01-29T16:08:02.975Z,46.93
2023-01-29T16:10:35.056Z,39.23
2023-01-29T16:13:04.564Z,42.50
2023-01-29T16:15:38.158Z,41.00
2023-01-29T16:18:39.530Z,49.43
2023-01-29T16:21:39.542Z,40.33
2023-01-29T16:24:16.095Z,43.17
2023-01-29T16:26:51.098Z,40.90
2023-01-29T16:29:32.275Z,41.83
2023-01-29T16:32:03.515Z,41.70
2023-01-29T16:34:44.832Z,39.63
2023-01-29T16:37:33.716Z,41.80
2023-01-29T16:40:13.479Z,33.33
2023-01-29T16:42:42.162Z,39.73
2023-01-29T16:45:30.387Z,36.50
2023-01-29T16:48:35.107Z,40.57
2023-01-29T16:51:31.342Z,34.27
2023-01-29T16:54:22.389Z,37.90
2023-01-29T16:56:59.322Z,43.20
2023-01-29T16:59:39.029Z,35.00
2023-01-29T17:02:30.609Z,40.30
2023-01-29T17:05:09.095Z,40.23
2023-01-29T17:07:38.479Z,35.53
2023-01-29T17:10:08.465Z,37.60
2023-01-29T17:12:38.764Z,40.37
2023-01-29T17:15:47.040Z,38.07
2023-01-29T17:18:26.097Z,35.20
2023-01-29T17:20:54.844Z,34.67
2023-01-29T17:23:24.231Z,36.60
2023-01-29T17:25:52.512Z,36.40
2023-01-29T17:28:20.431Z,33.53
2023-01-29T17:31:00.323Z,34.03
2023-01-29T17:33:35.643Z,37.40
2023-01-29T17:36:03.909Z,34.77
2023-01-29T17:38:32.234Z,33.00
2023-01-29T17:41:33.784Z,38.07
2023-01-29T17:44:01.656Z,35.27
2023-01-29T17:46:29.742Z,33.63
2023-01-29T17:48:57.733Z,37.00
2023-01-29T17:51:25.785Z,34.20
2023-01-29T17:53:53.772Z,34.57
2023-01-29T17:56:27.788Z,37.47
2023-01-29T17:58:55.769Z,34.80
2023-01-29T18:01:23.906Z,33.50
2023-01-29T18:03:51.808Z,43.30
2023-01-29T18:06:30.015Z,32.67
2023-01-29T18:08:58.586Z,36.10
2023-01-29T18:11:27.128Z,38.00
2023-01-29T18:13:56.903Z,42.00
2023-01-29T18:16:26.593Z,39.50
2023-01-29T18:18:54.926Z,40.20
2023-01-29T18:21:22.863Z,39.03
2023-01-29T18:23:50.880Z,39.90
2023-01-29T18:26:18.731Z,39.50
2023-01-29T18:28:46.597Z,40.77
2023-01-29T18:31:14.814Z,36.63
2023-01-29T18:33:43.113Z,41.03
2023-01-29T18:36:11.133Z,40.67
2023-01-29T18:38:39.622Z,38.23
2023-01-29T18:41:11.102Z,37.50
2023-01-29T18:43:43.147Z,40.97
2023-01-29T18:46:14.329Z,38.43
2023-01-29T18:48:43.011Z,42.13
2023-01-29T18:51:11.282Z,46.50
2023-01-29T18:53:39.185Z,39.27
2023-01-29T18:56:08.492Z,45.17
2023-01-29T18:58:37.458Z,46.10
2023-01-29T19:01:12.167Z,41.67
2023-01-29T19:03:42.664Z,38.60
2023-01-29T19:06:12.884Z,45.87
2023-01-29T19:08:44.774Z,46.60
2023-01-29T19:11:13.032Z,45.03
2023-01-29T19:13:42.673Z,41.00
2023-01-29T19:16:13.641Z,41.37
2023-01-29T19:18:42.452Z,40.23
2023-01-29T19:21:17.148Z,37.43
2023-01-29T19:23:45.357Z,39.03
2023-01-29T19:26:13.951Z,37.17
2023-01-29T19:28:42.476Z,35.13
2023-01-29T19:31:10.278Z,37.13
2023-01-29T19:33:39.269Z,36.10
2023-01-29T19:36:08.077Z,42.30
2023-01-29T19:38:38.767Z,37.37
2023-01-29T19:41:07.089Z,35.07
2023-01-29T19:43:35.254Z,38.00
2023-01-29T19:46:09.264Z,41.93
2023-01-29T19:48:38.720Z,47.87
2023-01-29T19:51:15.130Z,36.63
2023-01-29T19:53:47.122Z,39.67
2023-01-29T19:56:22.321Z,39.07
2023-01-29T19:58:57.932Z,36.80
2023-01-29T20:01:36.395Z,33.87
2023-01-29T20:04:13.832Z,31.57
2023-01-29T20:06:48.084Z,31.80
2023-01-29T20:09:26.495Z,36.50
2023-01-29T20:11:57.677Z,35.17
2023-01-29T20:14:25.987Z,31.30
2023-01-29T20:16:54.033Z,32.13
2023-01-29T20:19:22.284Z,36.87
2023-01-29T20:21:55.075Z,37.70
2023-01-29T20:24:24.824Z,36.57
2023-01-29T20:26:53.448Z,37.50
2023-01-29T20:29:25.724Z,33.40
2023-01-29T20:31:54.308Z,37.47
2023-01-29T20:34:24.403Z,36.17
2023-01-29T20:36:52.954Z,34.97
2023-01-29T20:39:20.854Z,32.20
2023-01-29T20:41:52.705Z,34.10
2023-01-29T20:44:21.368Z,35.30
2023-01-29T20:46:53.656Z,34.47
2023-01-29T20:49:22.141Z,38.87
2023-01-29T20:51:49.932Z,34.20
2023-01-29T20:54:17.698Z,39.03
2023-01-29T20:56:46.458Z,34.27
2023-01-29T20:59:15.292Z,38.73
2023-01-29T21:01:43.910Z,36.40
2023-01-29T21:04:11.776Z,38.73
2023-01-29T21:06:40.608Z,41.57
2023-01-29T21:09:08.578Z,36.47
2023-01-29T21:11:36.414Z,41.20
2023-01-29T21:14:04.414Z,42.13
2023-01-29T21:16:32.464Z,37.70
2023-01-29T21:19:01.391Z,37.67
2023-01-29T21:21:30.852Z,35.43
2023-01-29T21:23:59.687Z,38.97
2023-01-29T21:26:27.507Z,35.23
2023-01-29T21:28:55.339Z,39.27
2023-01-29T21:31:23.226Z,42.57
2023-01-29T21:33:51.128Z,39.00
2023-01-29T21:36:19.100Z,42.30
2023-01-29T21:38:46.805Z,44.20
2023-01-29T21:41:16.588Z,41.90
2023-01-29T21:43:45.907Z,42.50
2023-01-29T21:46:14.024Z,37.63
2023-01-29T21:48:44.776Z,40.00
2023-01-29T21:51:13.148Z,39.10
2023-01-29T21:53:40.771Z,39.83
2023-01-29T21:56:08.686Z,37.13
2023-01-29T21:58:36.387Z,38.30
2023-01-29T22:01:36.225Z,37.37
2023-01-29T22:03:52.097Z,38.30
2023-01-29T22:06:19.981Z,33.30
2023-01-29T22:08:50.321Z,37.17
2023-01-29T22:11:18.936Z,41.83
2023-01-29T22:13:48.179Z,39.13
2023-01-29T22:16:20.114Z,37.20
2023-01-29T22:18:50.361Z,36.03
2023-01-29T22:21:20.585Z,38.50
2023-01-29T22:23:49.913Z,38.57
2023-01-29T22:26:20.170Z,41.97
2023-01-29T22:28:48.455Z,42.70
2023-01-29T22:31:16.360Z,44.50
2023-01-29T22:33:44.083Z,39.00
2023-01-29T22:36:11.852Z,37.23
2023-01-29T22:38:41.851Z,44.10
2023-01-29T22:41:15.991Z,42.93
2023-01-29T22:43:46.536Z,46.07
2023-01-29T22:46:14.981Z,45.30
2023-01-29T22:48:46.894Z,45.20
2023-01-29T22:51:22.885Z,35.80
2023-01-29T22:53:58.856Z,43.20
2023-01-29T22:56:32.138Z,43.50
2023-01-29T22:59:03.727Z,41.27
2023-01-29T23:01:38.057Z,41.97
2023-01-29T23:04:06.893Z,41.17
2023-01-29T23:06:35.872Z,44.67
2023-01-29T23:09:04.455Z,39.20
2023-01-29T23:11:32.149Z,46.13
2023-01-29T23:14:01.194Z,48.30
2023-01-29T23:16:29.531Z,44.77
2023-01-29T23:18:57.709Z,47.17
2023-01-29T23:21:27.365Z,44.20
2023-01-29T23:24:01.684Z,37.13
2023-01-29T23:26:48.790Z,46.70
2023-01-29T23:29:16.745Z,43.67
2023-01-29T23:31:44.530Z,42.43
2023-01-29T23:34:13.793Z,41.93
2023-01-29T23:36:42.506Z,42.20
2023-01-29T23:39:11.231Z,39.30
2023-01-29T23:41:39.373Z,38.60
2023-01-29T23:44:07.235Z,50.03
2023-01-29T23:46:35.230Z,47.37
2023-01-29T23:49:03.098Z,44.07
2023-01-29T23:51:30.942Z,50.90
2023-01-29T23:53:59.212Z,46.77
2023-01-29T23:56:27.164Z,42.73
2023-01-29T23:58:57.443Z,45.77
